Archival Weather

Snohomish County (Paine Fld)

Everett, Washington (KPAE)

Report from: Wednesday, November 15, 2023 7:18 PM PST
Current time: Friday, June 21, 2024 1:52 AM PDT

Current weather – Weather history – Daily summaries
Weather forecast

Temperature5.0°C (41.0°F)
Wind chill2.8°C (37.1°F)
Dew point2.8°C (37.0°F)
Winds 5 kts (2.6 m/s, 5.8 mph) North-Northwest (340°)
Visibility10 mi. (16.1 km)
Clouds Scattered clouds 900 ft. (274 m)
Altimeter30.01 in.Hg (1016 mB)
Relative humidity86 %
Density altitude-1,200 ft. (-366 m)
Remarks Automated weather observing station with precipitation discriminator
Flight conditions Visual Meteorological Conditions
Raw dataKPAE 160318Z 34005KT 10SM SCT009 05/03 A3001 RMK AO2 T00500028
An error has occurred. This application may no longer respond until reloaded. Reload 🗙